메인 페이지
METAR-TAF:

METAR-TAF

공항 :

Lincoln Airport

링컨, 네브래스카, 미국

위도: 40-49-52N, 경도: 096-45-52W, 고도: 370m

현재 날씨관측

예보는 1 시간 4분 전, 22:04시(UTC)에 발표되었습니다.
17kt, 순간 최대 풍속 25kt
온도 -1°C
습도 69%
기압 1025 hPa
시정: 16.1km
고도 1800ft 상공 흐림

METAR: KLNK 252204Z 01017G25KT 10SM OVC018 M01/M06 A3028 RMK AO2 T10111061

시각: 18:08 (23:08 UTC)

예보

예보는 47분 전, 22:21시(UTC)에 발표되었습니다.
예보 대상 시간: 25일 22시부터 26일 18시까지 (UTC)
15kt, 순간 최대 풍속 23kt
시정: 10km
고도 1500ft 상공 흐림
25일 2300시부터 (UTC)
13kt, 순간 최대 풍속 22kt
시정: 6.4km
고도 1200ft 상공 흐림
약한눈, 박무
26일 0200시부터 (UTC)
13kt, 순간 최대 풍속 23kt
시정: 1.6km
고도 700ft 상공 흐림
약한눈, 박무
26일 1200시부터 (UTC)
10kt
시정: 10km
고도 3500ft 상공 흐림

TAF: KLNK 252221Z 2522/2618 01015G23KT P6SM OVC015 FM252300 01013G22KT 4SM -SN BR OVC012 FM260200 01013G23KT 1SM -SN BR OVC007 FM261200 36010KT P6SM OVC035

4,000개 이상의 공항 관측 자료 및 예보 (METAR 및 TAF 보고).

지도상에서 검색 가능한 기상관측소가 노란 점과 빨간 점으로 표시되어 있습니다.

기상관측소 명을 보려면 표시 위로 마우스를 이동하세요.

날씨 관측과 예보를 보려면 클릭하세요.

지도 변경 : 확대하려면 엑스 표시가 있는 녹색 버튼, 축소하려면 빼기 표시가 있는 녹색 버튼, 다음 페이지의 지도를 보려면 녹색 화살표를 클릭하세요.


METAR-TAF: